createdAt,value
2017-08-25T00:02:12.827Z,5.20
2017-08-25T00:04:38.898Z,5.45
2017-08-25T00:07:04.947Z,5.50
2017-08-25T00:09:31.042Z,5.35
2017-08-25T00:11:57.062Z,5.43
2017-08-25T00:14:23.462Z,5.82
2017-08-25T00:16:49.480Z,5.30
2017-08-25T00:19:15.502Z,5.70
2017-08-25T00:21:41.545Z,5.30
2017-08-25T00:24:07.555Z,5.10
2017-08-25T00:26:33.574Z,5.40
2017-08-25T00:28:59.906Z,5.70
2017-08-25T00:31:26.121Z,5.35
2017-08-25T00:33:52.154Z,5.20
2017-08-25T00:36:18.211Z,5.53
2017-08-25T00:38:44.258Z,5.70
2017-08-25T00:41:10.298Z,5.77
2017-08-25T00:43:36.355Z,5.90
2017-08-25T00:46:02.421Z,5.10
2017-08-25T00:48:28.470Z,5.37
2017-08-25T00:50:54.811Z,4.90
2017-08-25T00:53:20.845Z,4.55
2017-08-25T00:55:46.888Z,5.10
2017-08-25T00:58:13.202Z,4.95
2017-08-25T01:00:39.226Z,5.10
2017-08-25T01:03:05.259Z,5.43
2017-08-25T01:05:31.473Z,4.85
2017-08-25T01:07:57.526Z,4.87
2017-08-25T01:10:23.553Z,4.80
2017-08-25T01:12:49.818Z,5.25
2017-08-25T01:15:15.908Z,5.03
2017-08-25T01:17:41.957Z,5.37
2017-08-25T01:20:07.992Z,4.90
2017-08-25T01:22:34.018Z,5.37
2017-08-25T01:25:00.068Z,4.65
2017-08-25T01:27:26.590Z,5.20
2017-08-25T01:29:52.631Z,4.40
2017-08-25T01:32:18.700Z,4.70
2017-08-25T01:34:45.022Z,4.90
2017-08-25T01:37:11.042Z,4.70
2017-08-25T01:39:37.163Z,4.83
2017-08-25T01:42:03.397Z,4.93
2017-08-25T01:44:29.431Z,4.90
2017-08-25T01:46:55.557Z,4.95
2017-08-25T01:49:21.598Z,5.25
2017-08-25T01:51:47.659Z,4.90
2017-08-25T01:54:13.721Z,4.60
2017-08-25T01:56:40.358Z,4.78
2017-08-25T01:59:06.370Z,5.43
2017-08-25T02:01:32.431Z,5.00
2017-08-25T02:03:58.836Z,4.65
2017-08-25T02:06:24.850Z,4.80
2017-08-25T02:08:50.939Z,4.43
2017-08-25T02:11:17.309Z,4.70
2017-08-25T02:13:43.335Z,5.20
2017-08-25T02:16:09.391Z,4.78
2017-08-25T02:18:35.449Z,4.60
2017-08-25T02:21:01.497Z,4.60
2017-08-25T02:23:27.567Z,4.47
2017-08-25T02:25:53.622Z,4.75
2017-08-25T02:28:20.398Z,5.18
2017-08-25T02:30:46.459Z,4.87
2017-08-25T02:33:12.491Z,4.90
2017-08-25T02:35:38.553Z,4.62
2017-08-25T02:38:05.011Z,4.60
2017-08-25T02:40:31.029Z,4.15
2017-08-25T02:42:57.048Z,4.47
2017-08-25T02:45:23.438Z,4.30
2017-08-25T02:47:49.449Z,4.60
2017-08-25T02:50:15.470Z,4.72
2017-08-25T02:52:41.495Z,4.50
2017-08-25T02:55:07.510Z,4.68
2017-08-25T02:57:33.534Z,4.37
2017-08-25T02:59:59.611Z,4.60
2017-08-25T03:02:25.642Z,4.80
2017-08-25T03:04:51.699Z,4.28
2017-08-25T03:07:17.764Z,4.60
2017-08-25T03:09:43.985Z,4.97
2017-08-25T03:12:10.026Z,4.95
2017-08-25T03:14:36.225Z,5.10
2017-08-25T03:17:02.462Z,4.80
2017-08-25T03:19:28.490Z,4.70
2017-08-25T03:21:54.568Z,5.00
2017-08-25T03:24:20.599Z,4.93
2017-08-25T03:26:46.616Z,5.12
2017-08-25T03:29:12.683Z,4.70
2017-08-25T03:31:38.723Z,4.97
2017-08-25T03:34:04.758Z,5.00
2017-08-25T03:36:30.945Z,4.70
2017-08-25T03:38:57.082Z,4.50
2017-08-25T03:41:23.161Z,5.00
2017-08-25T03:43:49.434Z,5.12
2017-08-25T03:46:15.447Z,5.20
2017-08-25T03:48:41.461Z,4.70
2017-08-25T03:51:07.507Z,4.80
2017-08-25T03:53:33.609Z,4.47
2017-08-25T03:55:59.668Z,4.47
2017-08-25T03:58:25.730Z,4.85
2017-08-25T04:00:51.769Z,4.90
2017-08-25T04:03:17.799Z,5.00
2017-08-25T04:05:43.838Z,4.70
2017-08-25T04:08:09.862Z,4.47
2017-08-25T04:10:36.241Z,4.80
2017-08-25T04:13:02.284Z,4.30
2017-08-25T04:15:28.319Z,3.73
2017-08-25T04:17:54.378Z,4.28
2017-08-25T04:20:20.457Z,3.97
2017-08-25T04:22:46.486Z,4.20
2017-08-25T04:25:12.530Z,3.70
2017-08-25T04:27:38.593Z,4.10
2017-08-25T04:30:04.643Z,3.40
2017-08-25T04:32:30.736Z,4.00
2017-08-25T04:34:56.890Z,3.60
2017-08-25T04:37:23.075Z,3.93
2017-08-25T04:39:49.179Z,4.37
2017-08-25T04:42:15.227Z,4.70
2017-08-25T04:44:41.269Z,4.60
2017-08-25T04:47:07.313Z,5.20
2017-08-25T04:49:33.379Z,4.10
2017-08-25T04:51:59.402Z,4.60
2017-08-25T04:54:25.466Z,4.87
2017-08-25T04:56:51.534Z,5.40
2017-08-25T04:59:17.655Z,4.70
2017-08-25T05:01:43.767Z,5.85
2017-08-25T05:04:09.805Z,5.27
2017-08-25T05:06:35.842Z,5.22
2017-08-25T05:09:01.923Z,5.50
2017-08-25T05:11:27.955Z,5.50
2017-08-25T05:13:54.072Z,6.00
2017-08-25T05:18:52.970Z,5.32
2017-08-25T05:21:19.001Z,5.50
2017-08-25T05:23:45.102Z,6.20
2017-08-25T05:26:11.142Z,6.62
2017-08-25T05:28:37.194Z,5.90
2017-08-25T05:31:03.638Z,6.17
2017-08-25T05:33:29.682Z,5.97
2017-08-25T05:35:55.741Z,6.50
2017-08-25T05:38:21.800Z,6.00
2017-08-25T05:40:47.946Z,6.10
2017-08-25T05:43:13.977Z,6.10
2017-08-25T05:45:40.062Z,6.37
2017-08-25T05:48:06.094Z,6.90
2017-08-25T05:50:32.362Z,6.55
2017-08-25T05:52:58.510Z,6.18
2017-08-25T05:55:24.542Z,6.57
2017-08-25T05:57:50.582Z,7.20
2017-08-25T06:00:16.642Z,7.00
2017-08-25T06:02:42.672Z,6.60
2017-08-25T06:05:08.725Z,6.65
2017-08-25T06:07:34.979Z,6.47
2017-08-25T06:10:01.003Z,6.57
2017-08-25T06:12:27.054Z,7.20
2017-08-25T06:14:53.101Z,7.40
2017-08-25T06:17:19.125Z,6.90
2017-08-25T06:19:45.499Z,7.28
2017-08-25T06:22:11.556Z,7.85
2017-08-25T06:24:37.594Z,6.75
2017-08-25T06:27:03.738Z,7.12
2017-08-25T06:29:29.771Z,7.50
2017-08-25T06:31:55.827Z,7.90
2017-08-25T06:34:21.855Z,7.55
2017-08-25T06:36:47.965Z,7.72
2017-08-25T06:39:14.008Z,8.82
2017-08-25T06:41:40.086Z,7.60
2017-08-25T06:44:06.181Z,7.12
2017-08-25T06:46:32.194Z,7.85
2017-08-25T06:48:58.444Z,7.80
2017-08-25T06:51:24.478Z,7.80
2017-08-25T06:53:50.513Z,7.70
2017-08-25T06:56:16.550Z,7.90
2017-08-25T06:58:42.616Z,7.80
2017-08-25T07:01:08.644Z,8.68
2017-08-25T07:03:34.655Z,8.63
2017-08-25T07:06:00.700Z,8.05
2017-08-25T07:08:26.938Z,8.50
2017-08-25T07:10:53.110Z,8.48
2017-08-25T07:13:19.722Z,8.47
2017-08-25T07:15:45.751Z,8.02
2017-08-25T07:18:11.771Z,7.80
2017-08-25T07:20:37.810Z,7.50
2017-08-25T07:23:03.828Z,7.90
2017-08-25T07:25:29.888Z,7.60
2017-08-25T07:27:55.930Z,7.05
2017-08-25T07:30:21.960Z,7.37
2017-08-25T07:32:47.973Z,7.65
2017-08-25T07:35:14.357Z,7.00
2017-08-25T07:37:40.406Z,7.40
2017-08-25T07:40:06.478Z,7.05
2017-08-25T07:42:32.526Z,6.40
2017-08-25T07:44:58.587Z,6.10
2017-08-25T07:47:24.622Z,6.78
2017-08-25T07:49:50.675Z,6.68
2017-08-25T07:52:16.715Z,6.62
2017-08-25T07:54:42.780Z,6.37
2017-08-25T07:57:09.149Z,5.60
2017-08-25T07:59:35.182Z,5.47
2017-08-25T08:02:01.219Z,5.97
2017-08-25T08:04:27.310Z,5.67
2017-08-25T08:06:53.345Z,5.85
2017-08-25T08:09:19.362Z,6.80
2017-08-25T08:11:45.523Z,6.00
2017-08-25T08:14:11.566Z,5.93
2017-08-25T08:16:37.593Z,5.47
2017-08-25T08:19:03.659Z,5.80
2017-08-25T08:21:29.674Z,5.00
2017-08-25T08:23:55.699Z,6.00
2017-08-25T08:26:21.731Z,5.20
2017-08-25T08:28:47.751Z,5.10
2017-08-25T08:31:13.802Z,5.00
2017-08-25T08:33:39.875Z,5.00
2017-08-25T08:36:05.922Z,5.00
2017-08-25T08:38:31.926Z,4.50
2017-08-25T08:40:57.970Z,4.60
2017-08-25T08:43:23.986Z,4.60
2017-08-25T08:45:50.050Z,5.20
2017-08-25T08:48:16.129Z,5.07
2017-08-25T08:50:42.220Z,4.40
2017-08-25T08:53:08.236Z,4.97
2017-08-25T08:55:34.480Z,5.00
2017-08-25T08:58:00.519Z,4.50
2017-08-25T09:00:26.563Z,4.90
2017-08-25T09:02:52.783Z,4.90
2017-08-25T09:05:24.958Z,4.40
2017-08-25T09:07:50.980Z,4.65
2017-08-25T09:10:17.376Z,4.80
2017-08-25T09:12:43.402Z,4.47
2017-08-25T09:15:09.430Z,4.60
2017-08-25T09:17:35.630Z,4.72
2017-08-25T09:20:01.654Z,4.82
2017-08-25T09:22:27.717Z,4.87
2017-08-25T09:24:53.765Z,4.00
2017-08-25T09:27:19.826Z,4.10
2017-08-25T09:29:45.863Z,4.45
2017-08-25T09:32:11.881Z,4.50
2017-08-25T09:34:37.994Z,4.93
2017-08-25T09:37:04.010Z,4.17
2017-08-25T09:39:30.062Z,3.90
2017-08-25T09:41:56.086Z,4.10
2017-08-25T09:44:22.107Z,4.30
2017-08-25T09:46:48.181Z,3.80
2017-08-25T09:49:14.223Z,3.90
2017-08-25T09:51:40.245Z,4.82
2017-08-25T09:54:06.442Z,4.70
2017-08-25T09:56:32.474Z,4.00
2017-08-25T09:58:58.515Z,3.95
2017-08-25T10:01:28.442Z,4.00
2017-08-25T10:03:54.464Z,4.18
2017-08-25T10:06:20.486Z,4.30
2017-08-25T10:08:46.522Z,3.90
2017-08-25T10:11:12.578Z,4.00
2017-08-25T10:13:38.602Z,3.83
2017-08-25T10:16:04.641Z,3.35
2017-08-25T10:18:30.680Z,3.60
2017-08-25T10:20:56.907Z,3.92
2017-08-25T10:23:22.934Z,3.70
2017-08-25T10:25:48.959Z,3.97
2017-08-25T10:28:14.989Z,4.17
2017-08-25T10:30:41.026Z,4.10
2017-08-25T10:33:19.549Z,6.43
2017-08-25T10:35:57.990Z,5.00
2017-08-25T10:38:37.707Z,5.50
2017-08-25T10:41:16.018Z,4.30
2017-08-25T10:43:54.605Z,3.97
2017-08-25T10:46:20.628Z,3.60
2017-08-25T10:48:46.659Z,3.70
2017-08-25T10:51:12.714Z,4.18
2017-08-25T10:53:39.042Z,7.72
2017-08-25T10:56:05.094Z,4.00
2017-08-25T10:58:31.320Z,4.28
2017-08-25T11:00:57.355Z,3.40
2017-08-25T11:03:23.378Z,3.80
2017-08-25T11:05:49.698Z,4.70
2017-08-25T11:08:15.736Z,4.70
2017-08-25T11:10:41.774Z,3.30
2017-08-25T11:13:07.822Z,3.60
2017-08-25T11:15:33.870Z,3.22
2017-08-25T11:17:59.946Z,3.80
2017-08-25T11:20:26.162Z,3.72
2017-08-25T11:22:52.183Z,3.58
2017-08-25T11:25:18.206Z,3.90
2017-08-25T11:27:45.388Z,3.40
2017-08-25T11:30:11.433Z,3.22
2017-08-25T11:32:37.481Z,3.62
2017-08-25T11:35:03.520Z,3.37
2017-08-25T11:37:29.579Z,3.80
2017-08-25T11:39:55.638Z,3.80
2017-08-25T11:42:21.743Z,3.92
2017-08-25T11:44:47.779Z,3.90
2017-08-25T11:47:13.932Z,3.60
2017-08-25T11:49:40.014Z,3.80
2017-08-25T11:52:06.046Z,3.60
2017-08-25T11:54:32.074Z,3.70
2017-08-25T11:56:58.993Z,3.87
2017-08-25T11:59:25.038Z,3.80
2017-08-25T12:01:51.094Z,3.70
2017-08-25T12:04:17.159Z,3.55
2017-08-25T12:06:43.213Z,3.90
2017-08-25T12:09:09.225Z,3.50
2017-08-25T12:11:35.551Z,4.10
2017-08-25T12:14:01.587Z,3.90
2017-08-25T12:16:27.631Z,4.30
2017-08-25T12:18:53.760Z,7.28
2017-08-25T12:21:19.782Z,5.12
2017-08-25T12:23:45.804Z,6.18
2017-08-25T12:26:18.870Z,6.20
2017-08-25T12:28:44.904Z,3.70
2017-08-25T12:31:10.945Z,3.83
2017-08-25T12:33:37.214Z,4.10
2017-08-25T12:36:03.279Z,4.30
2017-08-25T12:38:29.305Z,9.63
2017-08-25T12:40:55.598Z,25.50
2017-08-25T12:43:21.623Z,48.33
2017-08-25T12:45:47.665Z,13.62
2017-08-25T12:48:14.786Z,3.50
2017-08-25T12:50:40.885Z,4.20
2017-08-25T12:53:06.906Z,3.20
2017-08-25T12:55:33.023Z,2.80
2017-08-25T12:57:59.046Z,2.90
2017-08-25T13:00:25.072Z,2.80
2017-08-25T13:02:51.309Z,2.60
2017-08-25T13:05:17.359Z,2.85
2017-08-25T13:07:43.406Z,2.80
2017-08-25T13:10:09.798Z,2.70
2017-08-25T13:12:35.814Z,2.60
2017-08-25T13:15:01.841Z,5.62
2017-08-25T13:17:28.063Z,3.97
2017-08-25T13:19:54.118Z,3.15
2017-08-25T13:22:20.135Z,2.60
2017-08-25T13:24:46.195Z,2.30
2017-08-25T13:27:12.247Z,2.70
2017-08-25T13:29:38.266Z,2.75
2017-08-25T13:32:04.599Z,3.12
2017-08-25T13:34:30.711Z,2.70
2017-08-25T13:36:56.740Z,2.70
2017-08-25T13:39:22.814Z,2.70
2017-08-25T13:41:48.853Z,2.30
2017-08-25T13:44:14.881Z,2.42
2017-08-25T13:46:40.934Z,3.70
2017-08-25T13:49:06.968Z,2.30
2017-08-25T13:51:32.979Z,2.92
2017-08-25T13:53:59.198Z,2.78
2017-08-25T13:56:25.234Z,2.60
2017-08-25T13:58:51.269Z,3.08
2017-08-25T14:01:17.322Z,2.40
2017-08-25T14:03:43.570Z,2.60
2017-08-25T14:06:09.654Z,2.13
2017-08-25T14:08:35.707Z,2.10
2017-08-25T14:11:01.775Z,2.20
2017-08-25T14:13:27.843Z,2.10
2017-08-25T14:15:53.869Z,2.00
2017-08-25T14:18:19.935Z,1.80
2017-08-25T14:20:45.962Z,2.00
2017-08-25T14:23:12.054Z,2.10
2017-08-25T14:25:38.398Z,2.25
2017-08-25T14:28:04.425Z,1.80
2017-08-25T14:30:30.447Z,2.00
2017-08-25T14:32:56.526Z,1.90
2017-08-25T14:35:22.570Z,2.00
2017-08-25T14:37:48.611Z,2.03
2017-08-25T14:40:14.839Z,1.80
2017-08-25T14:42:40.960Z,1.90
2017-08-25T14:45:06.994Z,1.90
2017-08-25T14:47:33.112Z,1.90
2017-08-25T14:49:59.195Z,1.80
2017-08-25T14:52:25.265Z,2.00
2017-08-25T14:54:51.674Z,1.85
2017-08-25T14:57:17.737Z,2.10
2017-08-25T14:59:43.765Z,1.70
2017-08-25T15:02:09.870Z,2.20
2017-08-25T15:04:35.903Z,2.23
2017-08-25T15:07:01.962Z,2.05
2017-08-25T15:09:28.027Z,2.20
2017-08-25T15:11:54.058Z,2.00
2017-08-25T15:14:20.088Z,1.90
2017-08-25T15:16:46.131Z,2.22
2017-08-25T15:19:12.195Z,2.00
2017-08-25T15:21:38.230Z,2.20
2017-08-25T15:24:04.339Z,2.50
2017-08-25T15:26:30.351Z,2.30
2017-08-25T15:28:56.398Z,2.30
2017-08-25T15:31:22.437Z,2.20
2017-08-25T15:33:48.473Z,2.40
2017-08-25T15:36:14.666Z,1.90
2017-08-25T15:38:40.738Z,2.00
2017-08-25T15:41:06.766Z,2.00
2017-08-25T15:43:32.818Z,2.17
2017-08-25T15:45:58.879Z,2.20
2017-08-25T15:48:24.937Z,2.35
2017-08-25T15:50:51.697Z,2.10
2017-08-25T15:53:25.213Z,2.10
2017-08-25T15:55:51.274Z,2.10
2017-08-25T15:58:17.310Z,1.90
2017-08-25T16:00:43.379Z,1.95
2017-08-25T16:03:09.454Z,1.90
2017-08-25T16:05:35.482Z,1.90
2017-08-25T16:08:01.562Z,2.30
2017-08-25T16:10:27.626Z,2.00
2017-08-25T16:12:53.670Z,1.87
2017-08-25T16:15:19.999Z,2.22
2017-08-25T16:17:46.034Z,2.10
2017-08-25T16:20:12.134Z,2.20
2017-08-25T16:22:38.182Z,2.30
2017-08-25T16:25:04.186Z,2.00
2017-08-25T16:27:36.822Z,1.90
2017-08-25T16:30:03.117Z,1.80
2017-08-25T16:32:29.139Z,1.70
2017-08-25T16:34:55.161Z,1.90
2017-08-25T16:37:21.565Z,2.30
2017-08-25T16:39:47.610Z,2.37
2017-08-25T16:42:13.671Z,2.10
2017-08-25T16:44:39.728Z,2.10
2017-08-25T16:47:05.759Z,1.70
2017-08-25T16:49:31.794Z,3.10
2017-08-25T16:51:57.860Z,3.20
2017-08-25T16:54:23.943Z,2.40
2017-08-25T16:56:50.002Z,2.55
2017-08-25T16:59:16.094Z,2.35
2017-08-25T17:01:42.188Z,2.50
2017-08-25T17:04:08.234Z,2.20
2017-08-25T17:06:34.557Z,1.90
2017-08-25T17:09:00.636Z,2.35
2017-08-25T17:11:26.678Z,1.90
2017-08-25T17:13:53.010Z,2.25
2017-08-25T17:16:19.078Z,2.22
2017-08-25T17:18:45.146Z,2.30
2017-08-25T17:21:11.263Z,4.30
2017-08-25T17:23:37.358Z,3.00
2017-08-25T17:26:03.390Z,2.87
2017-08-25T17:28:29.649Z,2.15
2017-08-25T17:30:55.716Z,1.80
2017-08-25T17:33:21.767Z,2.67
2017-08-25T17:35:48.237Z,2.40
2017-08-25T17:38:14.306Z,2.50
2017-08-25T17:40:40.330Z,2.70
2017-08-25T17:43:06.376Z,2.60
2017-08-25T17:45:32.421Z,2.08
2017-08-25T17:47:58.517Z,2.53
2017-08-25T17:50:24.690Z,2.30
2017-08-25T17:52:50.750Z,2.40
2017-08-25T17:55:16.802Z,2.50
2017-08-25T17:57:42.854Z,2.00
2017-08-25T18:00:08.944Z,2.40
2017-08-25T18:02:34.998Z,2.30
2017-08-25T18:05:01.053Z,2.70
2017-08-25T18:07:27.411Z,2.60
2017-08-25T18:09:53.479Z,2.80
2017-08-25T18:12:19.537Z,3.15
2017-08-25T18:14:45.606Z,3.12
2017-08-25T18:17:11.661Z,2.70
2017-08-25T18:19:37.714Z,2.60
2017-08-25T18:22:03.753Z,2.67
2017-08-25T18:24:29.814Z,2.42
2017-08-25T18:26:55.829Z,2.30
2017-08-25T18:29:21.886Z,2.30
2017-08-25T18:31:47.974Z,2.30
2017-08-25T18:34:14.029Z,2.50
2017-08-25T18:36:40.060Z,2.60
2017-08-25T18:39:06.122Z,2.95
2017-08-25T18:41:32.172Z,2.72
2017-08-25T18:43:58.206Z,3.10
2017-08-25T18:46:24.278Z,3.40
2017-08-25T18:48:50.350Z,3.62
2017-08-25T18:51:16.385Z,3.70
2017-08-25T18:53:42.475Z,3.95
2017-08-25T18:56:08.535Z,3.70
2017-08-25T18:58:34.598Z,3.60
2017-08-25T19:01:00.634Z,3.70
2017-08-25T19:03:26.654Z,3.37
2017-08-25T19:05:53.063Z,3.83
2017-08-25T19:08:19.098Z,4.10
2017-08-25T19:10:45.128Z,4.83
2017-08-25T19:13:11.207Z,5.50
2017-08-25T19:15:37.256Z,6.70
2017-08-25T19:18:03.318Z,7.32
2017-08-25T19:20:29.560Z,8.13
2017-08-25T19:22:55.870Z,7.78
2017-08-25T19:25:21.895Z,7.00
2017-08-25T19:27:48.078Z,7.47
2017-08-25T19:30:14.101Z,7.40
2017-08-25T19:32:40.136Z,7.75
2017-08-25T19:35:06.178Z,7.62
2017-08-25T19:37:32.226Z,7.50
2017-08-25T19:39:59.006Z,6.97
2017-08-25T19:42:25.030Z,6.60
2017-08-25T19:44:51.078Z,6.97
2017-08-25T19:47:17.164Z,6.30
2017-08-25T19:49:43.172Z,5.90
2017-08-25T19:52:09.197Z,6.20
2017-08-25T19:54:36.122Z,6.10
2017-08-25T19:57:02.149Z,6.22
2017-08-25T19:59:28.179Z,6.87
2017-08-25T20:01:54.498Z,6.70
2017-08-25T20:04:20.529Z,6.00
2017-08-25T20:06:46.561Z,7.10
2017-08-25T20:09:12.585Z,6.87
2017-08-25T20:11:38.606Z,7.15
2017-08-25T20:14:04.828Z,7.28
2017-08-25T20:16:30.867Z,7.53
2017-08-25T20:18:56.943Z,6.97
2017-08-25T20:21:22.997Z,6.70
2017-08-25T20:23:49.066Z,6.53
2017-08-25T20:26:15.451Z,6.72
2017-08-25T20:28:41.482Z,6.10
2017-08-25T20:32:23.186Z,7.50
2017-08-25T20:34:49.199Z,7.30
2017-08-25T20:37:15.213Z,7.30
2017-08-25T20:39:41.250Z,7.47
2017-08-25T20:42:07.274Z,7.70
2017-08-25T20:44:33.301Z,7.80
2017-08-25T20:46:59.712Z,8.35
2017-08-25T20:49:25.746Z,8.45
2017-08-25T20:51:51.770Z,8.00
2017-08-25T20:54:18.180Z,8.57
2017-08-25T20:56:44.210Z,9.35
2017-08-25T20:59:10.242Z,9.80
2017-08-25T21:01:36.302Z,9.68
2017-08-25T21:04:03.158Z,10.30
2017-08-25T21:06:29.182Z,10.25
2017-08-25T21:08:55.428Z,9.43
2017-08-25T21:11:21.455Z,9.90
2017-08-25T21:13:47.471Z,7.70
2017-08-25T21:16:13.529Z,8.13
2017-08-25T21:18:39.553Z,8.60
2017-08-25T21:21:05.586Z,8.30
2017-08-25T21:23:31.616Z,8.25
2017-08-25T21:25:57.635Z,7.62
2017-08-25T21:28:23.722Z,8.68
2017-08-25T21:30:49.786Z,8.10
2017-08-25T21:33:15.802Z,8.50
2017-08-25T21:35:41.904Z,9.02
2017-08-25T21:38:07.930Z,9.70
2017-08-25T21:40:33.981Z,8.40
2017-08-25T21:43:00.039Z,8.30
2017-08-25T21:45:26.063Z,8.50
2017-08-25T21:47:52.076Z,9.30
2017-08-25T21:50:18.154Z,9.27
2017-08-25T21:52:44.203Z,9.50
2017-08-25T21:55:10.251Z,9.27
2017-08-25T21:57:36.279Z,10.35
2017-08-25T22:00:02.330Z,11.05
2017-08-25T22:02:28.347Z,10.65
2017-08-25T22:04:54.390Z,10.40
2017-08-25T22:07:20.438Z,10.45
2017-08-25T22:09:46.459Z,10.38
2017-08-25T22:12:12.494Z,10.07
2017-08-25T22:14:38.778Z,11.70
2017-08-25T22:17:04.781Z,10.83
2017-08-25T22:19:30.804Z,11.20
2017-08-25T22:21:56.848Z,12.00
2017-08-25T22:24:22.862Z,11.70
2017-08-25T22:26:48.871Z,11.43
2017-08-25T22:29:14.914Z,11.35
2017-08-25T22:31:40.932Z,11.40
2017-08-25T22:34:06.950Z,11.20
2017-08-25T22:36:33.042Z,10.77
2017-08-25T22:38:59.064Z,11.43
2017-08-25T22:41:25.398Z,11.17
2017-08-25T22:43:51.691Z,11.70
2017-08-25T22:46:17.736Z,11.10
2017-08-25T22:48:43.765Z,10.40
2017-08-25T22:51:09.813Z,10.57
2017-08-25T22:53:35.836Z,11.55
2017-08-25T22:56:01.872Z,10.80
2017-08-25T22:58:27.886Z,11.27
2017-08-25T23:00:53.893Z,11.80
2017-08-25T23:03:19.940Z,11.53
2017-08-25T23:05:45.971Z,11.32
2017-08-25T23:08:11.990Z,12.40
2017-08-25T23:10:38.348Z,11.38
2017-08-25T23:13:04.414Z,12.37
2017-08-25T23:15:30.437Z,11.00
2017-08-25T23:17:56.509Z,11.88
2017-08-25T23:20:22.534Z,12.30
2017-08-25T23:22:48.570Z,11.93
2017-08-25T23:25:16.167Z,12.30
2017-08-25T23:27:42.209Z,12.30
2017-08-25T23:30:08.218Z,13.05
2017-08-25T23:32:34.282Z,12.00
2017-08-25T23:35:00.302Z,11.20
2017-08-25T23:37:26.326Z,11.50
2017-08-25T23:39:52.378Z,11.05
2017-08-25T23:42:18.396Z,11.10
2017-08-25T23:44:44.479Z,11.45
2017-08-25T23:47:10.525Z,12.02
2017-08-25T23:49:36.558Z,11.90
2017-08-25T23:52:02.575Z,12.27
2017-08-25T23:54:28.666Z,10.85
2017-08-25T23:56:54.694Z,11.70
2017-08-25T23:59:20.717Z,12.73
